sensor_id;sensor_type;location;lat;lon;timestamp;pressure;altitude;pressure_sealevel;temperature;humidity
7182;BME280;3632;42.724;23.298;2023-02-20T00:00:16;95674.31;;;11.59;60.54
7182;BME280;3632;42.724;23.298;2023-02-20T00:02:44;95521.09;;;10.49;60.89
7182;BME280;3632;42.724;23.298;2023-02-20T00:05:12;95494.16;;;9.88;61.01
7182;BME280;3632;42.724;23.298;2023-02-20T00:07:39;95684.78;;;11.44;61.53
7182;BME280;3632;42.724;23.298;2023-02-20T00:10:07;95677.94;;;11.45;61.80
7182;BME280;3632;42.724;23.298;2023-02-20T00:12:34;95633.13;;;11.08;62.15
7182;BME280;3632;42.724;23.298;2023-02-20T00:15:03;95394.88;;;9.18;62.12
7182;BME280;3632;42.724;23.298;2023-02-20T00:17:30;95089.66;;;7.45;62.43
7182;BME280;3632;42.724;23.298;2023-02-20T00:19:57;95205.09;;;7.38;62.52
7182;BME280;3632;42.724;23.298;2023-02-20T00:22:24;95683.16;;;11.32;63.16
7182;BME280;3632;42.724;23.298;2023-02-20T00:24:52;95022.69;;;7.24;63.03
7182;BME280;3632;42.724;23.298;2023-02-20T00:27:19;95134.22;;;7.97;62.67
7182;BME280;3632;42.724;23.298;2023-02-20T00:29:46;95695.09;;;11.43;63.15
7182;BME280;3632;42.724;23.298;2023-02-20T00:32:15;95149.00;;;8.03;63.10
7182;BME280;3632;42.724;23.298;2023-02-20T00:34:42;95279.94;;;8.18;62.91
7182;BME280;3632;42.724;23.298;2023-02-20T00:37:10;95181.50;;;8.34;63.36
7182;BME280;3632;42.724;23.298;2023-02-20T00:39:37;95701.69;;;11.23;63.57
7182;BME280;3632;42.724;23.298;2023-02-20T00:42:04;95697.06;;;11.28;63.53
7182;BME280;3632;42.724;23.298;2023-02-20T00:44:31;95669.91;;;11.38;64.05
7182;BME280;3632;42.724;23.298;2023-02-20T00:47:01;95633.94;;;10.97;64.38
7182;BME280;3632;42.724;23.298;2023-02-20T00:49:29;95675.25;;;11.24;64.22
7182;BME280;3632;42.724;23.298;2023-02-20T00:51:56;95703.44;;;11.34;64.56
7182;BME280;3632;42.724;23.298;2023-02-20T00:54:23;95057.00;;;7.04;64.43
7182;BME280;3632;42.724;23.298;2023-02-20T00:56:50;95378.91;;;8.92;64.28
7182;BME280;3632;42.724;23.298;2023-02-20T00:59:17;95556.41;;;10.42;64.51
7182;BME280;3632;42.724;23.298;2023-02-20T01:01:44;95417.53;;;9.45;64.52
7182;BME280;3632;42.724;23.298;2023-02-20T01:04:11;95643.97;;;10.41;64.88
7182;BME280;3632;42.724;23.298;2023-02-20T01:06:39;95719.41;;;11.14;65.76
7182;BME280;3632;42.724;23.298;2023-02-20T01:09:06;95718.13;;;11.08;66.20
7182;BME280;3632;42.724;23.298;2023-02-20T01:11:33;95670.22;;;10.31;66.38
7182;BME280;3632;42.724;23.298;2023-02-20T01:14:00;95717.66;;;11.03;66.51
7182;BME280;3632;42.724;23.298;2023-02-20T01:16:27;95788.38;;;11.01;66.41
7182;BME280;3632;42.724;23.298;2023-02-20T01:18:54;95657.19;;;10.46;66.39
7182;BME280;3632;42.724;23.298;2023-02-20T01:21:21;95777.41;;;11.12;66.11
7182;BME280;3632;42.724;23.298;2023-02-20T01:23:49;95670.47;;;10.74;66.21
7182;BME280;3632;42.724;23.298;2023-02-20T01:26:16;95715.59;;;10.73;65.77
7182;BME280;3632;42.724;23.298;2023-02-20T01:28:44;95586.53;;;10.14;66.49
7182;BME280;3632;42.724;23.298;2023-02-20T01:31:12;95628.00;;;10.39;66.47
7182;BME280;3632;42.724;23.298;2023-02-20T01:33:40;95657.47;;;10.66;66.51
7182;BME280;3632;42.724;23.298;2023-02-20T01:36:08;95756.19;;;11.22;66.60
7182;BME280;3632;42.724;23.298;2023-02-20T01:38:35;95209.34;;;7.00;66.58
7182;BME280;3632;42.724;23.298;2023-02-20T01:41:04;95653.09;;;10.33;67.00
7182;BME280;3632;42.724;23.298;2023-02-20T01:43:32;95368.50;;;8.71;67.26
7182;BME280;3632;42.724;23.298;2023-02-20T01:46:41;95453.72;;;9.37;67.44
7182;BME280;3632;42.724;23.298;2023-02-20T01:49:11;95760.38;;;11.23;67.75
7182;BME280;3632;42.724;23.298;2023-02-20T01:51:42;95484.06;;;8.79;67.92
7182;BME280;3632;42.724;23.298;2023-02-20T01:54:13;95649.53;;;10.35;68.30
7182;BME280;3632;42.724;23.298;2023-02-20T01:56:43;95304.00;;;8.38;68.33
7182;BME280;3632;42.724;23.298;2023-02-20T01:59:13;95773.69;;;11.16;69.37
7182;BME280;3632;42.724;23.298;2023-02-20T02:01:41;95635.69;;;9.67;69.95
7182;BME280;3632;42.724;23.298;2023-02-20T02:04:09;95619.28;;;9.94;71.22
7182;BME280;3632;42.724;23.298;2023-02-20T02:06:40;95660.56;;;10.23;71.35
7182;BME280;3632;42.724;23.298;2023-02-20T02:09:14;95843.53;;;10.78;72.67
7182;BME280;3632;42.724;23.298;2023-02-20T02:11:43;95617.91;;;9.78;73.15
7182;BME280;3632;42.724;23.298;2023-02-20T02:14:11;95835.13;;;10.52;73.56
7182;BME280;3632;42.724;23.298;2023-02-20T02:16:44;95785.22;;;9.63;73.60
7182;BME280;3632;42.724;23.298;2023-02-20T02:19:26;95782.19;;;10.32;72.59
7182;BME280;3632;42.724;23.298;2023-02-20T02:22:27;95299.28;;;7.57;71.58
7182;BME280;3632;42.724;23.298;2023-02-20T02:25:24;95158.78;;;6.07;71.46
7182;BME280;3632;42.724;23.298;2023-02-20T02:31:41;95573.94;;;8.78;72.20
7182;BME280;3632;42.724;23.298;2023-02-20T02:37:18;95605.13;;;8.92;73.56
7182;BME280;3632;42.724;23.298;2023-02-20T02:39:53;95783.88;;;9.83;74.93
7182;BME280;3632;42.724;23.298;2023-02-20T02:42:28;95335.81;;;6.76;75.06
7182;BME280;3632;42.724;23.298;2023-02-20T02:45:02;95793.25;;;9.70;76.31
7182;BME280;3632;42.724;23.298;2023-02-20T02:47:43;95969.53;;;9.59;77.87
7182;BME280;3632;42.724;23.298;2023-02-20T02:50:16;95793.03;;;9.60;77.76
7182;BME280;3632;42.724;23.298;2023-02-20T02:52:47;95351.47;;;6.82;76.90
7182;BME280;3632;42.724;23.298;2023-02-20T02:55:19;95480.72;;;7.63;77.16
7182;BME280;3632;42.724;23.298;2023-02-20T02:57:46;95704.38;;;8.91;77.84
7182;BME280;3632;42.724;23.298;2023-02-20T03:00:16;95715.44;;;8.77;78.25
7182;BME280;3632;42.724;23.298;2023-02-20T03:02:49;95812.16;;;9.40;78.31
7182;BME280;3632;42.724;23.298;2023-02-20T03:05:22;95808.31;;;9.47;78.19
7182;BME280;3632;42.724;23.298;2023-02-20T03:07:55;95614.00;;;7.26;77.82
7182;BME280;3632;42.724;23.298;2023-02-20T03:10:25;95257.72;;;6.02;77.78
7182;BME280;3632;42.724;23.298;2023-02-20T03:13:00;95528.63;;;7.67;78.00
7182;BME280;3632;42.724;23.298;2023-02-20T03:15:30;94967.75;;;4.25;77.00
7182;BME280;3632;42.724;23.298;2023-02-20T03:18:06;95817.28;;;9.53;76.66
7182;BME280;3632;42.724;23.298;2023-02-20T03:20:38;95676.41;;;8.24;76.76
7182;BME280;3632;42.724;23.298;2023-02-20T03:23:10;95439.63;;;7.31;76.06
7182;BME280;3632;42.724;23.298;2023-02-20T03:25:40;95592.38;;;7.75;75.99
7182;BME280;3632;42.724;23.298;2023-02-20T03:28:13;95867.66;;;9.60;75.86
7182;BME280;3632;42.724;23.298;2023-02-20T03:30:46;95842.63;;;9.54;75.47
7182;BME280;3632;42.724;23.298;2023-02-20T03:33:20;95908.34;;;9.48;75.72
7182;BME280;3632;42.724;23.298;2023-02-20T03:36:07;95625.78;;;8.09;75.47
7182;BME280;3632;42.724;23.298;2023-02-20T03:38:59;95849.44;;;9.54;75.18
7182;BME280;3632;42.724;23.298;2023-02-20T03:41:46;95836.81;;;9.52;74.75
7182;BME280;3632;42.724;23.298;2023-02-20T03:44:32;95678.13;;;8.38;74.45
7182;BME280;3632;42.724;23.298;2023-02-20T03:47:00;95850.25;;;9.54;74.54
7182;BME280;3632;42.724;23.298;2023-02-20T03:49:31;95900.44;;;9.26;75.19
7182;BME280;3632;42.724;23.298;2023-02-20T03:52:18;95867.63;;;9.48;74.80
7182;BME280;3632;42.724;23.298;2023-02-20T03:54:46;95877.53;;;9.52;74.17
7182;BME280;3632;42.724;23.298;2023-02-20T03:57:17;95675.72;;;7.81;73.91
7182;BME280;3632;42.724;23.298;2023-02-20T03:59:48;95874.06;;;9.53;74.09
7182;BME280;3632;42.724;23.298;2023-02-20T04:02:19;95872.94;;;9.45;74.22
7182;BME280;3632;42.724;23.298;2023-02-20T04:04:50;95540.38;;;7.42;74.45
7182;BME280;3632;42.724;23.298;2023-02-20T04:07:23;95867.94;;;9.43;74.90
7182;BME280;3632;42.724;23.298;2023-02-20T04:09:54;95866.50;;;9.39;75.28
7182;BME280;3632;42.724;23.298;2023-02-20T04:12:25;95848.25;;;9.20;75.28
7182;BME280;3632;42.724;23.298;2023-02-20T04:14:55;95389.22;;;5.30;74.20
7182;BME280;3632;42.724;23.298;2023-02-20T04:17:25;95779.75;;;8.10;74.68
7182;BME280;3632;42.724;23.298;2023-02-20T04:19:56;95295.19;;;5.81;74.22
7182;BME280;3632;42.724;23.298;2023-02-20T04:22:26;95873.94;;;9.42;75.26
7182;BME280;3632;42.724;23.298;2023-02-20T04:24:57;95933.75;;;9.35;76.26
7182;BME280;3632;42.724;23.298;2023-02-20T04:27:25;95497.66;;;6.66;76.93
7182;BME280;3632;42.724;23.298;2023-02-20T04:29:52;95893.53;;;9.28;77.79
7182;BME280;3632;42.724;23.298;2023-02-20T04:32:19;95899.63;;;9.25;77.93
7182;BME280;3632;42.724;23.298;2023-02-20T04:34:46;95252.44;;;4.92;77.71
7182;BME280;3632;42.724;23.298;2023-02-20T04:37:14;95897.19;;;9.24;77.75
7182;BME280;3632;42.724;23.298;2023-02-20T04:39:41;95834.31;;;8.86;77.94
7182;BME280;3632;42.724;23.298;2023-02-20T04:42:10;95693.13;;;7.88;77.70
7182;BME280;3632;42.724;23.298;2023-02-20T04:44:37;95720.59;;;7.53;77.26
7182;BME280;3632;42.724;23.298;2023-02-20T04:47:07;95515.94;;;6.71;77.66
7182;BME280;3632;42.724;23.298;2023-02-20T04:49:34;95902.84;;;9.14;76.59
7182;BME280;3632;42.724;23.298;2023-02-20T04:52:01;95409.78;;;6.12;75.67
7182;BME280;3632;42.724;23.298;2023-02-20T04:54:28;95761.63;;;8.02;76.15
7182;BME280;3632;42.724;23.298;2023-02-20T04:56:55;95571.69;;;7.00;75.03
7182;BME280;3632;42.724;23.298;2023-02-20T04:59:24;95795.69;;;8.26;74.61
7182;BME280;3632;42.724;23.298;2023-02-20T05:01:51;95911.47;;;8.85;74.77
7182;BME280;3632;42.724;23.298;2023-02-20T05:04:19;95913.38;;;8.25;73.06
7182;BME280;3632;42.724;23.298;2023-02-20T05:06:49;95908.78;;;8.74;73.42
7182;BME280;3632;42.724;23.298;2023-02-20T05:09:17;95461.31;;;5.51;71.95
7182;BME280;3632;42.724;23.298;2023-02-20T05:11:44;95458.25;;;5.60;71.24
7182;BME280;3632;42.724;23.298;2023-02-20T05:14:12;95859.63;;;8.18;71.07
7182;BME280;3632;42.724;23.298;2023-02-20T05:16:40;95933.56;;;8.56;70.65
7182;BME280;3632;42.724;23.298;2023-02-20T05:19:13;95817.00;;;6.93;69.86
7182;BME280;3632;42.724;23.298;2023-02-20T05:21:41;95617.13;;;5.83;69.26
7182;BME280;3632;42.724;23.298;2023-02-20T05:24:25;95925.94;;;8.56;69.28
7182;BME280;3632;42.724;23.298;2023-02-20T05:26:54;95976.38;;;8.34;68.92
7182;BME280;3632;42.724;23.298;2023-02-20T05:29:23;95654.31;;;5.81;68.80
7182;BME280;3632;42.724;23.298;2023-02-20T05:31:51;95944.06;;;8.50;69.18
7182;BME280;3632;42.724;23.298;2023-02-20T05:34:19;95410.19;;;5.16;68.50
7182;BME280;3632;42.724;23.298;2023-02-20T05:36:47;95883.19;;;7.92;70.25
7182;BME280;3632;42.724;23.298;2023-02-20T05:39:14;96001.13;;;8.45;70.65
7182;BME280;3632;42.724;23.298;2023-02-20T05:41:41;95970.38;;;8.49;70.40
7182;BME280;3632;42.724;23.298;2023-02-20T05:44:08;95317.00;;;3.38;69.21
7182;BME280;3632;42.724;23.298;2023-02-20T05:46:38;95226.72;;;3.46;68.91
7182;BME280;3632;42.724;23.298;2023-02-20T05:49:07;95620.63;;;6.42;70.38
7182;BME280;3632;42.724;23.298;2023-02-20T05:51:34;95933.75;;;8.39;71.37
7182;BME280;3632;42.724;23.298;2023-02-20T05:54:03;96022.09;;;8.34;71.08
7182;BME280;3632;42.724;23.298;2023-02-20T05:56:30;95974.38;;;8.67;71.33
7182;BME280;3632;42.724;23.298;2023-02-20T05:58:58;95258.25;;;4.33;70.46
7182;BME280;3632;42.724;23.298;2023-02-20T06:01:27;95595.31;;;6.42;70.93
7182;BME280;3632;42.724;23.298;2023-02-20T06:03:55;95526.06;;;5.99;69.98
7182;BME280;3632;42.724;23.298;2023-02-20T06:06:23;95661.50;;;6.80;70.74
7182;BME280;3632;42.724;23.298;2023-02-20T06:08:50;95193.16;;;3.30;69.97
7182;BME280;3632;42.724;23.298;2023-02-20T06:11:17;95984.38;;;8.85;69.47
7182;BME280;3632;42.724;23.298;2023-02-20T06:13:45;95451.69;;;4.96;67.53
7182;BME280;3632;42.724;23.298;2023-02-20T06:16:21;95106.03;;;3.57;66.34
7182;BME280;3632;42.724;23.298;2023-02-20T06:18:49;95696.38;;;6.61;64.60
7182;BME280;3632;42.724;23.298;2023-02-20T06:21:17;95832.31;;;8.08;64.06
7182;BME280;3632;42.724;23.298;2023-02-20T06:23:47;95379.25;;;5.27;64.16
7182;BME280;3632;42.724;23.298;2023-02-20T06:26:14;95842.44;;;7.65;64.33
7182;BME280;3632;42.724;23.298;2023-02-20T06:28:42;95897.44;;;8.65;63.39
7182;BME280;3632;42.724;23.298;2023-02-20T06:31:10;96009.50;;;9.44;63.31
7182;BME280;3632;42.724;23.298;2023-02-20T06:33:41;95539.06;;;6.51;63.01
7182;BME280;3632;42.724;23.298;2023-02-20T06:36:18;95998.66;;;9.55;62.68
7182;BME280;3632;42.724;23.298;2023-02-20T06:38:47;96021.56;;;9.82;61.90
7182;BME280;3632;42.724;23.298;2023-02-20T06:41:13;95607.25;;;5.94;61.27
7182;BME280;3632;42.724;23.298;2023-02-20T06:43:40;96023.16;;;9.70;61.63
7182;BME280;3632;42.724;23.298;2023-02-20T06:46:07;95715.88;;;7.89;61.30
7182;BME280;3632;42.724;23.298;2023-02-20T06:48:34;96023.53;;;9.64;61.33
7182;BME280;3632;42.724;23.298;2023-02-20T06:51:01;95347.28;;;5.12;60.99
7182;BME280;3632;42.724;23.298;2023-02-20T06:53:28;95695.69;;;7.45;61.68
7182;BME280;3632;42.724;23.298;2023-02-20T06:55:56;95663.41;;;5.85;61.66
7182;BME280;3632;42.724;23.298;2023-02-20T06:58:23;95440.41;;;5.02;61.30
7182;BME280;3632;42.724;23.298;2023-02-20T07:00:50;95502.91;;;5.91;61.47
7182;BME280;3632;42.724;23.298;2023-02-20T07:03:17;95720.66;;;7.23;61.44
7182;BME280;3632;42.724;23.298;2023-02-20T07:05:44;95965.75;;;8.84;61.28
7182;BME280;3632;42.724;23.298;2023-02-20T07:08:11;96043.69;;;9.40;61.36
7182;BME280;3632;42.724;23.298;2023-02-20T07:10:38;96040.19;;;9.55;60.67
7182;BME280;3632;42.724;23.298;2023-02-20T07:13:06;96042.94;;;9.52;59.29
7182;BME280;3632;42.724;23.298;2023-02-20T07:15:33;96060.44;;;8.88;58.94
7182;BME280;3632;42.724;23.298;2023-02-20T07:17:59;95373.50;;;5.39;58.04
7182;BME280;3632;42.724;23.298;2023-02-20T07:20:26;95430.84;;;5.82;58.36
7182;BME280;3632;42.724;23.298;2023-02-20T07:22:53;96059.78;;;9.68;57.89
7182;BME280;3632;42.724;23.298;2023-02-20T07:25:22;95775.06;;;7.75;56.42
7182;BME280;3632;42.724;23.298;2023-02-20T07:27:49;96053.28;;;9.76;56.40
7182;BME280;3632;42.724;23.298;2023-02-20T07:30:17;96033.53;;;9.67;57.12
7182;BME280;3632;42.724;23.298;2023-02-20T07:32:44;96071.25;;;9.60;56.28
7182;BME280;3632;42.724;23.298;2023-02-20T07:35:13;96015.66;;;9.54;56.12
7182;BME280;3632;42.724;23.298;2023-02-20T07:37:40;96016.47;;;9.55;56.30
7182;BME280;3632;42.724;23.298;2023-02-20T07:40:08;96081.53;;;9.59;56.31
7182;BME280;3632;42.724;23.298;2023-02-20T07:42:35;95959.22;;;9.21;55.71
7182;BME280;3632;42.724;23.298;2023-02-20T07:45:02;95446.72;;;6.00;55.20
7182;BME280;3632;42.724;23.298;2023-02-20T07:47:30;96013.13;;;9.54;54.31
7182;BME280;3632;42.724;23.298;2023-02-20T07:49:57;95903.78;;;8.58;54.86
7182;BME280;3632;42.724;23.298;2023-02-20T07:52:24;96026.59;;;9.42;54.81
7182;BME280;3632;42.724;23.298;2023-02-20T07:54:51;96031.09;;;9.51;54.97
7182;BME280;3632;42.724;23.298;2023-02-20T07:57:18;95398.41;;;4.54;54.84
7182;BME280;3632;42.724;23.298;2023-02-20T07:59:45;96043.34;;;9.59;54.92
7182;BME280;3632;42.724;23.298;2023-02-20T08:02:12;96036.25;;;9.64;53.91
7182;BME280;3632;42.724;23.298;2023-02-20T08:04:40;96048.16;;;9.63;53.96
7182;BME280;3632;42.724;23.298;2023-02-20T08:07:06;95644.34;;;7.27;53.32
7182;BME280;3632;42.724;23.298;2023-02-20T08:09:33;96040.28;;;9.81;52.76
7182;BME280;3632;42.724;23.298;2023-02-20T08:12:00;96055.69;;;9.79;52.07
7182;BME280;3632;42.724;23.298;2023-02-20T08:14:27;95888.88;;;8.81;52.18
7182;BME280;3632;42.724;23.298;2023-02-20T08:16:55;96054.97;;;9.90;51.28
7182;BME280;3632;42.724;23.298;2023-02-20T08:19:22;96050.28;;;9.84;51.58
7182;BME280;3632;42.724;23.298;2023-02-20T08:21:50;96047.34;;;9.90;51.30
7182;BME280;3632;42.724;23.298;2023-02-20T08:24:17;96055.44;;;9.96;51.17
7182;BME280;3632;42.724;23.298;2023-02-20T08:26:45;96064.00;;;10.08;51.44
7182;BME280;3632;42.724;23.298;2023-02-20T08:29:12;96014.81;;;9.81;50.37
7182;BME280;3632;42.724;23.298;2023-02-20T08:31:39;96075.47;;;10.15;50.60
7182;BME280;3632;42.724;23.298;2023-02-20T08:34:06;95998.34;;;9.86;50.29
7182;BME280;3632;42.724;23.298;2023-02-20T08:36:33;96046.59;;;10.41;50.22
7182;BME280;3632;42.724;23.298;2023-02-20T08:39:02;96054.44;;;10.51;49.59
7182;BME280;3632;42.724;23.298;2023-02-20T08:41:29;96057.72;;;10.66;49.07
7182;BME280;3632;42.724;23.298;2023-02-20T08:43:56;96050.66;;;10.44;49.18
7182;BME280;3632;42.724;23.298;2023-02-20T08:46:23;96053.72;;;10.62;49.04
7182;BME280;3632;42.724;23.298;2023-02-20T08:48:50;95952.69;;;10.23;48.97
7182;BME280;3632;42.724;23.298;2023-02-20T08:51:19;96058.53;;;10.79;48.73
7182;BME280;3632;42.724;23.298;2023-02-20T08:53:46;96046.72;;;10.90;48.80
7182;BME280;3632;42.724;23.298;2023-02-20T08:56:17;96044.25;;;10.89;47.82
7182;BME280;3632;42.724;23.298;2023-02-20T08:58:43;95827.00;;;8.67;47.28
7182;BME280;3632;42.724;23.298;2023-02-20T09:01:10;96037.81;;;10.96;47.82
7182;BME280;3632;42.724;23.298;2023-02-20T09:03:37;96045.25;;;11.24;47.40
7182;BME280;3632;42.724;23.298;2023-02-20T09:06:06;96046.44;;;11.31;46.24
7182;BME280;3632;42.724;23.298;2023-02-20T09:08:33;96031.34;;;11.28;46.74
7182;BME280;3632;42.724;23.298;2023-02-20T09:11:00;95948.28;;;10.75;46.35
7182;BME280;3632;42.724;23.298;2023-02-20T09:13:28;95971.72;;;10.93;45.99
7182;BME280;3632;42.724;23.298;2023-02-20T09:15:55;96020.00;;;11.32;46.26
7182;BME280;3632;42.724;23.298;2023-02-20T09:18:23;95936.56;;;11.09;46.19
7182;BME280;3632;42.724;23.298;2023-02-20T09:20:50;96053.34;;;11.91;45.25
7182;BME280;3632;42.724;23.298;2023-02-20T09:23:17;95818.09;;;9.79;45.08
7182;BME280;3632;42.724;23.298;2023-02-20T09:25:46;95998.69;;;11.81;44.71
7182;BME280;3632;42.724;23.298;2023-02-20T09:28:13;96026.66;;;12.06;45.14
7182;BME280;3632;42.724;23.298;2023-02-20T09:30:42;95659.25;;;8.94;44.30
7182;BME280;3632;42.724;23.298;2023-02-20T09:33:08;96039.72;;;12.14;44.73
7182;BME280;3632;42.724;23.298;2023-02-20T09:35:35;95907.72;;;11.32;44.84
7182;BME280;3632;42.724;23.298;2023-02-20T09:38:02;96037.22;;;12.25;44.80
7182;BME280;3632;42.724;23.298;2023-02-20T09:40:31;96056.97;;;12.00;43.79
7182;BME280;3632;42.724;23.298;2023-02-20T09:43:16;95776.94;;;11.18;43.91
7182;BME280;3632;42.724;23.298;2023-02-20T09:45:52;95917.53;;;12.19;43.82
7182;BME280;3632;42.724;23.298;2023-02-20T09:48:33;95869.16;;;11.83;43.75
7182;BME280;3632;42.724;23.298;2023-02-20T09:51:07;95904.53;;;12.45;43.64
7182;BME280;3632;42.724;23.298;2023-02-20T09:53:41;95406.59;;;9.55;42.47
7182;BME280;3632;42.724;23.298;2023-02-20T09:56:13;96006.34;;;13.62;41.50
7182;BME280;3632;42.724;23.298;2023-02-20T09:58:45;96018.84;;;13.44;41.94
7182;BME280;3632;42.724;23.298;2023-02-20T10:01:18;96038.22;;;13.58;41.46
7182;BME280;3632;42.724;23.298;2023-02-20T10:03:53;96016.34;;;13.65;41.15
7182;BME280;3632;42.724;23.298;2023-02-20T10:06:23;96059.91;;;13.20;40.95
7182;BME280;3632;42.724;23.298;2023-02-20T10:08:51;96028.53;;;13.72;41.19
7182;BME280;3632;42.724;23.298;2023-02-20T10:11:27;95930.09;;;12.78;40.51
7182;BME280;3632;42.724;23.298;2023-02-20T10:14:17;95987.00;;;13.69;40.04
7182;BME280;3632;42.724;23.298;2023-02-20T10:16:55;96002.88;;;13.84;40.21
7182;BME280;3632;42.724;23.298;2023-02-20T10:19:30;96025.31;;;13.59;40.04
7182;BME280;3632;42.724;23.298;2023-02-20T10:22:04;96023.19;;;14.07;39.19
7182;BME280;3632;42.724;23.298;2023-02-20T10:24:43;95995.41;;;14.44;38.49
7182;BME280;3632;42.724;23.298;2023-02-20T10:27:24;95708.84;;;12.52;38.29
7182;BME280;3632;42.724;23.298;2023-02-20T10:29:55;96001.81;;;14.80;37.85
7182;BME280;3632;42.724;23.298;2023-02-20T10:32:27;95986.81;;;14.85;37.68
7182;BME280;3632;42.724;23.298;2023-02-20T10:34:58;95976.88;;;15.32;37.27
7182;BME280;3632;42.724;23.298;2023-02-20T10:37:33;95883.88;;;14.79;37.11
7182;BME280;3632;42.724;23.298;2023-02-20T10:40:07;96035.75;;;15.14;37.12
7182;BME280;3632;42.724;23.298;2023-02-20T10:42:40;95992.31;;;15.01;37.63
7182;BME280;3632;42.724;23.298;2023-02-20T10:45:15;95987.25;;;14.90;36.65
7182;BME280;3632;42.724;23.298;2023-02-20T10:47:46;95972.81;;;15.29;36.30
7182;BME280;3632;42.724;23.298;2023-02-20T10:50:19;95915.22;;;14.82;37.03
7182;BME280;3632;42.724;23.298;2023-02-20T10:52:52;95962.47;;;15.60;36.77
7182;BME280;3632;42.724;23.298;2023-02-20T10:55:24;95971.97;;;15.97;36.26
7182;BME280;3632;42.724;23.298;2023-02-20T10:57:56;96072.91;;;16.09;36.22
7182;BME280;3632;42.724;23.298;2023-02-20T11:00:30;95968.81;;;16.23;35.86
7182;BME280;3632;42.724;23.298;2023-02-20T11:03:04;95715.84;;;14.44;35.95
7182;BME280;3632;42.724;23.298;2023-02-20T11:05:39;95970.28;;;16.35;35.66
7182;BME280;3632;42.724;23.298;2023-02-20T11:08:07;95515.91;;;12.56;35.82
7182;BME280;3632;42.724;23.298;2023-02-20T11:10:34;95595.00;;;14.28;35.83
7182;BME280;3632;42.724;23.298;2023-02-20T11:13:03;95691.28;;;14.42;35.48
7182;BME280;3632;42.724;23.298;2023-02-20T11:15:33;95981.97;;;16.85;39.08
7182;BME280;3632;42.724;23.298;2023-02-20T11:18:10;95981.78;;;17.78;38.53
7182;BME280;3632;42.724;23.298;2023-02-20T11:20:43;95988.38;;;17.36;37.46
7182;BME280;3632;42.724;23.298;2023-02-20T11:23:33;95973.31;;;17.41;40.64
7182;BME280;3632;42.724;23.298;2023-02-20T11:26:22;95983.13;;;17.55;40.97
7182;BME280;3632;42.724;23.298;2023-02-20T11:28:56;95984.38;;;17.61;37.69
7182;BME280;3632;42.724;23.298;2023-02-20T11:31:23;96011.84;;;17.88;38.78
7182;BME280;3632;42.724;23.298;2023-02-20T11:33:53;95980.53;;;18.00;38.81
7182;BME280;3632;42.724;23.298;2023-02-20T11:36:22;95876.38;;;17.58;35.40
7182;BME280;3632;42.724;23.298;2023-02-20T11:38:57;95956.22;;;18.03;37.53
7182;BME280;3632;42.724;23.298;2023-02-20T11:41:27;95826.66;;;17.30;35.68
7182;BME280;3632;42.724;23.298;2023-02-20T11:44:19;95837.97;;;17.02;34.54
7182;BME280;3632;42.724;23.298;2023-02-20T11:46:47;95828.25;;;16.68;37.87
7182;BME280;3632;42.724;23.298;2023-02-20T11:49:33;95965.16;;;17.91;37.07
7182;BME280;3632;42.724;23.298;2023-02-20T11:52:07;95879.47;;;17.61;34.59
7182;BME280;3632;42.724;23.298;2023-02-20T11:54:34;95771.06;;;17.27;34.19
7182;BME280;3632;42.724;23.298;2023-02-20T11:57:03;95702.66;;;16.27;33.89
7182;BME280;3632;42.724;23.298;2023-02-20T11:59:35;95850.84;;;17.02;34.12
7182;BME280;3632;42.724;23.298;2023-02-20T12:02:23;95870.16;;;16.51;34.90
7182;BME280;3632;42.724;23.298;2023-02-20T12:05:08;95909.56;;;16.71;34.13
7182;BME280;3632;42.724;23.298;2023-02-20T12:07:38;95068.91;;;11.04;35.16
7182;BME280;3632;42.724;23.298;2023-02-20T12:10:24;95813.13;;;16.28;34.05
7182;BME280;3632;42.724;23.298;2023-02-20T12:12:53;95870.00;;;17.17;33.58
7182;BME280;3632;42.724;23.298;2023-02-20T12:15:21;95963.28;;;17.83;32.97
7182;BME280;3632;42.724;23.298;2023-02-20T12:18:18;95962.47;;;17.83;32.61
7182;BME280;3632;42.724;23.298;2023-02-20T12:20:57;96036.16;;;18.38;32.33
7182;BME280;3632;42.724;23.298;2023-02-20T12:23:35;95914.00;;;18.30;31.33
7182;BME280;3632;42.724;23.298;2023-02-20T12:26:13;95934.66;;;18.55;31.78
7182;BME280;3632;42.724;23.298;2023-02-20T12:28:52;95939.31;;;18.78;31.30
7182;BME280;3632;42.724;23.298;2023-02-20T12:31:32;95730.56;;;18.57;29.91
7182;BME280;3632;42.724;23.298;2023-02-20T12:34:15;95935.09;;;19.60;30.25
7182;BME280;3632;42.724;23.298;2023-02-20T12:36:50;95886.09;;;20.48;29.80
7182;BME280;3632;42.724;23.298;2023-02-20T12:39:24;95797.94;;;20.33;28.40
7182;BME280;3632;42.724;23.298;2023-02-20T12:42:07;95940.78;;;21.08;28.50
7182;BME280;3632;42.724;23.298;2023-02-20T12:45:05;95890.19;;;21.74;27.22
7182;BME280;3632;42.724;23.298;2023-02-20T12:47:38;95911.00;;;21.04;28.22
7182;BME280;3632;42.724;23.298;2023-02-20T12:50:33;95943.72;;;22.20;27.13
7182;BME280;3632;42.724;23.298;2023-02-20T12:53:16;95941.00;;;21.68;27.42
7182;BME280;3632;42.724;23.298;2023-02-20T12:55:51;95941.53;;;20.86;28.29
7182;BME280;3632;42.724;23.298;2023-02-20T12:58:28;95937.94;;;20.95;28.20
7182;BME280;3632;42.724;23.298;2023-02-20T13:00:59;95937.00;;;20.80;28.59
7182;BME280;3632;42.724;23.298;2023-02-20T13:03:37;95935.63;;;21.39;28.06
7182;BME280;3632;42.724;23.298;2023-02-20T13:06:06;95795.13;;;19.64;28.24
7182;BME280;3632;42.724;23.298;2023-02-20T13:08:40;95997.63;;;21.18;27.86
7182;BME280;3632;42.724;23.298;2023-02-20T13:11:14;95921.88;;;19.88;29.17
7182;BME280;3632;42.724;23.298;2023-02-20T13:13:52;95920.88;;;20.21;29.13
7182;BME280;3632;42.724;23.298;2023-02-20T13:16:28;95931.56;;;20.26;29.29
7182;BME280;3632;42.724;23.298;2023-02-20T13:19:02;95869.44;;;20.34;29.13
7182;BME280;3632;42.724;23.298;2023-02-20T13:21:34;95927.94;;;21.23;28.52
7182;BME280;3632;42.724;23.298;2023-02-20T13:24:30;95937.19;;;20.78;32.06
7182;BME280;3632;42.724;23.298;2023-02-20T13:26:59;95609.88;;;18.99;30.99
7182;BME280;3632;42.724;23.298;2023-02-20T13:29:32;95940.59;;;21.26;28.89
7182;BME280;3632;42.724;23.298;2023-02-20T13:32:01;95620.81;;;19.34;28.44
7182;BME280;3632;42.724;23.298;2023-02-20T13:37:50;95927.03;;;20.52;29.51
7182;BME280;3632;42.724;23.298;2023-02-20T13:40:44;95945.50;;;20.49;29.75
7182;BME280;3632;42.724;23.298;2023-02-20T13:43:38;95932.69;;;19.67;30.35
7182;BME280;3632;42.724;23.298;2023-02-20T13:46:14;95957.97;;;17.67;32.91
7182;BME280;3632;42.724;23.298;2023-02-20T13:48:45;95815.31;;;15.29;34.46